createdAt,value
2023-05-01T00:01:14.800Z,7.32
2023-05-01T00:03:47.935Z,8.31
2023-05-01T00:06:20.263Z,8.87
2023-05-01T00:08:53.987Z,10.60
2023-05-01T00:11:26.927Z,10.76
2023-05-01T00:13:59.572Z,11.06
2023-05-01T00:16:31.318Z,11.17
2023-05-01T00:19:03.093Z,11.35
2023-05-01T00:21:34.912Z,11.62
2023-05-01T00:24:06.553Z,11.57
2023-05-01T00:26:38.246Z,11.68
2023-05-01T00:29:09.871Z,12.35
2023-05-01T00:31:41.639Z,12.06
2023-05-01T00:34:13.486Z,12.22
2023-05-01T00:36:45.229Z,12.15
2023-05-01T00:39:17.127Z,12.43
2023-05-01T00:41:48.807Z,11.83
2023-05-01T00:44:20.450Z,11.69
2023-05-01T00:46:52.495Z,11.81
2023-05-01T00:49:25.019Z,12.13
2023-05-01T00:51:56.919Z,12.14
2023-05-01T00:54:29.075Z,11.79
2023-05-01T00:57:00.967Z,11.39
2023-05-01T00:59:33.161Z,11.21
2023-05-01T01:02:04.992Z,11.32
2023-05-01T01:04:40.904Z,11.47
2023-05-01T01:07:22.506Z,11.21
2023-05-01T01:10:19.683Z,11.10
2023-05-01T01:13:14.304Z,10.06
2023-05-01T01:15:55.343Z,9.77
2023-05-01T01:18:43.620Z,9.63
2023-05-01T01:21:30.679Z,9.13
2023-05-01T01:24:21.549Z,9.16
2023-05-01T01:27:02.568Z,9.50
2023-05-01T01:30:01.603Z,9.20
2023-05-01T01:32:51.993Z,9.06
2023-05-01T01:35:27.621Z,8.96
2023-05-01T01:38:05.731Z,9.01
2023-05-01T01:41:05.453Z,9.00
2023-05-01T01:43:43.639Z,8.98
2023-05-01T01:46:18.624Z,7.94
2023-05-01T01:48:57.306Z,7.08
2023-05-01T01:51:31.006Z,6.71
2023-05-01T01:54:05.474Z,6.21
2023-05-01T01:56:42.231Z,5.98
2023-05-01T01:59:18.699Z,5.68
2023-05-01T02:01:53.476Z,5.69
2023-05-01T02:04:29.207Z,5.32
2023-05-01T02:07:04.354Z,5.15
2023-05-01T02:09:40.838Z,5.09
2023-05-01T02:12:16.874Z,5.17
2023-05-01T02:14:53.426Z,5.17
2023-05-01T02:17:45.407Z,5.19
2023-05-01T02:20:21.973Z,5.15
2023-05-01T02:22:58.768Z,5.13
2023-05-01T02:25:37.652Z,5.27
2023-05-01T02:28:13.240Z,5.25
2023-05-01T02:30:46.105Z,5.19
2023-05-01T02:33:17.901Z,5.34
2023-05-01T02:35:49.910Z,5.67
2023-05-01T02:38:23.986Z,5.73
2023-05-01T02:40:58.135Z,5.88
2023-05-01T02:43:39.672Z,5.94
2023-05-01T02:46:14.359Z,5.83
2023-05-01T02:48:51.494Z,5.46
2023-05-01T02:51:25.654Z,5.79
2023-05-01T02:54:02.578Z,5.84
2023-05-01T02:56:37.561Z,5.79
2023-05-01T02:59:09.894Z,5.69
2023-05-01T03:01:45.835Z,5.74
2023-05-01T03:04:19.125Z,5.94
2023-05-01T03:06:56.173Z,6.05
2023-05-01T03:09:30.476Z,6.24
2023-05-01T03:12:22.085Z,6.75
2023-05-01T03:15:13.698Z,6.58
2023-05-01T03:18:00.594Z,6.75
2023-05-01T03:21:00.005Z,6.71
2023-05-01T03:23:52.460Z,6.63
2023-05-01T03:26:38.972Z,6.74
2023-05-01T03:29:30.487Z,6.60
2023-05-01T03:32:23.077Z,7.07
2023-05-01T03:35:16.452Z,6.81
2023-05-01T03:38:08.935Z,7.17
2023-05-01T03:41:18.933Z,8.06
2023-05-01T03:44:10.417Z,6.91
2023-05-01T03:47:01.321Z,7.23
2023-05-01T03:49:50.180Z,6.92
2023-05-01T03:52:41.828Z,7.06
2023-05-01T03:55:33.479Z,7.56
2023-05-01T03:58:19.649Z,7.96
2023-05-01T04:01:11.218Z,8.20
2023-05-01T04:04:07.875Z,8.92
2023-05-01T04:07:09.000Z,9.28
2023-05-01T04:10:00.598Z,9.87
2023-05-01T04:12:52.214Z,10.03
2023-05-01T04:15:46.992Z,9.41
2023-05-01T04:18:38.620Z,9.36
2023-05-01T04:21:30.205Z,9.28
2023-05-01T04:24:21.852Z,9.49
2023-05-01T04:27:13.424Z,10.55
2023-05-01T04:30:05.531Z,11.28
2023-05-01T04:32:57.580Z,10.63
2023-05-01T04:35:49.237Z,10.85
2023-05-01T04:38:40.824Z,11.19
2023-05-01T04:41:13.049Z,11.06
2023-05-01T04:43:45.708Z,10.76
2023-05-01T04:46:22.388Z,10.34
2023-05-01T04:48:55.423Z,9.93
2023-05-01T04:51:28.017Z,9.53
2023-05-01T04:54:00.543Z,9.80
2023-05-01T04:56:33.576Z,9.47
2023-05-01T04:59:07.256Z,9.35
2023-05-01T05:01:40.317Z,9.48
2023-05-01T05:04:14.957Z,9.69
2023-05-01T05:06:47.864Z,9.59
2023-05-01T05:09:30.201Z,9.49
2023-05-01T05:12:04.978Z,10.46
2023-05-01T05:14:38.770Z,10.10
2023-05-01T05:17:11.418Z,10.20
2023-05-01T05:19:45.061Z,10.32
2023-05-01T05:22:18.890Z,9.65
2023-05-01T05:25:29.500Z,9.99
2023-05-01T05:28:06.116Z,9.21
2023-05-01T05:30:58.107Z,9.51
2023-05-01T05:33:50.660Z,9.35
2023-05-01T05:36:42.414Z,8.97
2023-05-01T05:39:34.274Z,9.04
2023-05-01T05:42:25.980Z,8.52
2023-05-01T05:45:17.845Z,8.46
2023-05-01T05:47:56.947Z,8.88
2023-05-01T05:50:50.484Z,8.77
2023-05-01T05:53:42.086Z,8.29
2023-05-01T05:56:30.768Z,8.10
2023-05-01T05:59:23.193Z,7.78
2023-05-01T06:02:05.665Z,7.34
2023-05-01T06:04:57.842Z,7.52
2023-05-01T06:07:52.678Z,7.71
2023-05-01T06:10:44.893Z,7.05
2023-05-01T06:13:37.253Z,7.81
2023-05-01T06:16:29.497Z,7.26
2023-05-01T06:19:21.266Z,6.92
2023-05-01T06:22:17.002Z,7.24
2023-05-01T06:25:31.943Z,6.85
2023-05-01T06:28:24.320Z,6.44
2023-05-01T06:31:16.031Z,6.67
2023-05-01T06:34:14.074Z,6.14
2023-05-01T06:37:13.297Z,6.24
2023-05-01T06:40:06.918Z,5.31
2023-05-01T06:42:58.917Z,4.38
2023-05-01T06:45:53.574Z,3.83
2023-05-01T06:48:45.398Z,3.20
2023-05-01T06:51:39.572Z,1.69
2023-05-01T06:54:31.104Z,1.46
2023-05-01T06:57:22.682Z,1.20
2023-05-01T07:00:15.570Z,1.08
2023-05-01T07:03:07.502Z,1.17
2023-05-01T07:05:59.165Z,0.94
2023-05-01T07:08:50.728Z,1.04
2023-05-01T07:11:42.949Z,0.93
2023-05-01T07:14:35.462Z,0.97
2023-05-01T07:17:27.090Z,1.09
2023-05-01T07:20:18.900Z,1.04
2023-05-01T07:23:10.560Z,1.04
2023-05-01T07:26:02.243Z,1.37
2023-05-01T07:28:53.868Z,1.27
2023-05-01T07:31:46.263Z,1.32
2023-05-01T07:34:37.913Z,2.79
2023-05-01T07:37:29.487Z,4.91
2023-05-01T07:40:21.198Z,6.63
2023-05-01T07:43:12.898Z,6.28
2023-05-01T07:46:05.000Z,5.63
2023-05-01T07:48:56.620Z,5.69
2023-05-01T07:51:48.318Z,6.07
2023-05-01T07:54:40.103Z,5.46
2023-05-01T07:57:32.522Z,6.53
2023-05-01T08:00:24.177Z,5.47
2023-05-01T08:03:16.108Z,4.83
2023-05-01T08:06:07.850Z,4.13
2023-05-01T08:08:59.478Z,4.17
2023-05-01T08:11:51.018Z,3.72
2023-05-01T08:14:42.571Z,4.92
2023-05-01T08:17:17.585Z,3.11
2023-05-01T08:19:49.606Z,4.47
2023-05-01T08:22:24.284Z,2.89
2023-05-01T08:24:56.164Z,2.48
2023-05-01T08:27:29.240Z,2.60
2023-05-01T08:30:01.581Z,2.65
2023-05-01T08:32:34.399Z,3.58
2023-05-01T08:35:06.917Z,3.06
2023-05-01T08:37:39.601Z,2.70
2023-05-01T08:40:12.405Z,2.43
2023-05-01T08:42:45.812Z,2.40
2023-05-01T08:45:19.563Z,2.63
2023-05-01T08:47:54.710Z,2.81
2023-05-01T08:50:28.372Z,3.12
2023-05-01T08:53:02.121Z,3.08
2023-05-01T08:55:37.349Z,2.87
2023-05-01T08:58:14.334Z,2.93
2023-05-01T09:00:49.422Z,2.80
2023-05-01T09:03:42.279Z,3.00
2023-05-01T09:06:22.965Z,3.02
2023-05-01T09:09:14.730Z,3.09
2023-05-01T09:12:01.493Z,2.87
2023-05-01T09:14:55.143Z,2.94
2023-05-01T09:17:48.016Z,3.07
2023-05-01T09:20:40.447Z,3.06
2023-05-01T09:23:32.095Z,2.91
2023-05-01T09:26:23.664Z,2.85
2023-05-01T09:29:37.683Z,2.61
2023-05-01T09:32:29.548Z,2.41
2023-05-01T09:35:21.096Z,2.41
2023-05-01T09:38:17.935Z,2.41
2023-05-01T09:41:09.989Z,2.48
2023-05-01T09:44:05.245Z,2.62
2023-05-01T09:46:57.038Z,2.47
2023-05-01T09:49:48.632Z,2.39
2023-05-01T09:52:40.200Z,2.59
2023-05-01T09:55:33.181Z,2.54
2023-05-01T09:58:28.021Z,2.55
2023-05-01T10:01:41.210Z,3.08
2023-05-01T10:04:34.726Z,3.52
2023-05-01T10:07:26.587Z,2.85
2023-05-01T10:10:20.564Z,3.22
2023-05-01T10:13:18.579Z,2.94
2023-05-01T10:16:29.493Z,3.22
2023-05-01T10:19:21.226Z,3.05
2023-05-01T10:22:11.702Z,2.26
2023-05-01T10:25:03.497Z,2.31
2023-05-01T10:27:55.707Z,2.15
2023-05-01T10:30:49.266Z,2.41
2023-05-01T10:33:42.576Z,2.68
2023-05-01T10:36:43.853Z,2.89
2023-05-01T10:39:36.766Z,2.61
2023-05-01T10:42:28.339Z,2.72
2023-05-01T10:45:29.544Z,2.77
2023-05-01T10:48:39.606Z,2.54
2023-05-01T10:51:31.317Z,2.61
2023-05-01T10:54:23.885Z,2.45
2023-05-01T10:57:42.201Z,2.31
2023-05-01T11:00:33.883Z,2.21
2023-05-01T11:03:25.453Z,2.39
2023-05-01T11:06:21.551Z,2.52
2023-05-01T11:09:39.657Z,1.72
2023-05-01T11:12:46.895Z,1.76
2023-05-01T11:15:38.566Z,2.18
2023-05-01T11:18:45.936Z,2.50
2023-05-01T11:21:39.339Z,2.58
2023-05-01T11:24:32.499Z,2.60
2023-05-01T11:27:24.215Z,2.52
2023-05-01T11:30:16.646Z,2.49
2023-05-01T11:33:10.513Z,1.88
2023-05-01T11:36:02.869Z,2.24
2023-05-01T11:38:59.172Z,2.19
2023-05-01T11:41:50.752Z,2.39
2023-05-01T11:44:42.293Z,2.33
2023-05-01T11:47:34.182Z,2.36
2023-05-01T11:50:36.975Z,2.12
2023-05-01T11:53:29.284Z,2.25
2023-05-01T11:56:26.694Z,2.24
2023-05-01T11:59:19.048Z,2.38
2023-05-01T12:02:19.512Z,2.38
2023-05-01T12:05:17.470Z,2.32
2023-05-01T12:08:20.429Z,2.29
2023-05-01T12:11:12.448Z,2.26
2023-05-01T12:14:05.090Z,2.19
2023-05-01T12:16:56.914Z,2.18
2023-05-01T12:19:49.059Z,2.18
2023-05-01T12:22:50.523Z,2.04
2023-05-01T12:25:43.289Z,1.90
2023-05-01T12:28:34.860Z,2.03
2023-05-01T12:31:28.016Z,2.07
2023-05-01T12:34:30.204Z,2.08
2023-05-01T12:37:21.880Z,1.86
2023-05-01T12:40:16.586Z,1.91
2023-05-01T12:43:08.352Z,1.67
2023-05-01T12:46:01.239Z,1.90
2023-05-01T12:48:54.520Z,1.43
2023-05-01T12:51:51.656Z,1.24
2023-05-01T12:54:43.996Z,1.13
2023-05-01T12:57:35.666Z,0.84
2023-05-01T13:00:27.254Z,1.01
2023-05-01T13:03:23.473Z,1.09
2023-05-01T13:06:15.349Z,1.16
2023-05-01T13:09:10.491Z,1.34
2023-05-01T13:12:06.543Z,1.55
2023-05-01T13:14:58.962Z,1.12
2023-05-01T13:17:50.798Z,1.19
2023-05-01T13:20:42.392Z,1.05
2023-05-01T13:23:34.435Z,1.01
2023-05-01T13:26:34.149Z,1.04
2023-05-01T13:29:25.827Z,1.02
2023-05-01T13:32:17.702Z,0.85
2023-05-01T13:35:09.683Z,1.26
2023-05-01T13:38:03.766Z,1.29
2023-05-01T13:40:55.270Z,1.27
2023-05-01T13:43:53.143Z,1.50
2023-05-01T13:46:45.569Z,1.49
2023-05-01T13:49:41.754Z,1.43
2023-05-01T13:52:42.069Z,1.38
2023-05-01T13:55:33.711Z,1.36
2023-05-01T13:58:25.507Z,1.33
2023-05-01T14:01:21.708Z,1.32
2023-05-01T14:04:18.407Z,1.35
2023-05-01T14:07:17.162Z,1.15
2023-05-01T14:10:09.562Z,1.08
2023-05-01T14:13:02.723Z,1.24
2023-05-01T14:15:54.326Z,1.19
2023-05-01T14:18:47.878Z,1.13
2023-05-01T14:21:41.354Z,1.08
2023-05-01T14:24:36.203Z,1.39
2023-05-01T14:27:27.843Z,1.31
2023-05-01T14:30:32.165Z,1.34
2023-05-01T14:33:23.837Z,1.34
2023-05-01T14:36:18.487Z,1.28
2023-05-01T14:39:10.194Z,1.38
2023-05-01T14:42:01.834Z,1.48
2023-05-01T14:44:53.523Z,1.51
2023-05-01T14:47:47.692Z,1.34
2023-05-01T14:50:39.384Z,1.39
2023-05-01T14:53:32.299Z,1.19
2023-05-01T14:56:23.961Z,1.16
2023-05-01T14:59:15.979Z,1.29
2023-05-01T15:02:07.603Z,1.27
2023-05-01T15:05:00.296Z,1.15
2023-05-01T15:07:54.912Z,1.34
2023-05-01T15:10:46.451Z,1.09
2023-05-01T15:13:39.108Z,1.14
2023-05-01T15:16:30.728Z,1.24
2023-05-01T15:19:22.347Z,1.19
2023-05-01T15:22:13.990Z,1.22
2023-05-01T15:25:06.996Z,1.15
2023-05-01T15:27:58.564Z,1.30
2023-05-01T15:30:52.655Z,1.17
2023-05-01T15:33:44.219Z,1.43
2023-05-01T15:36:35.904Z,1.52
2023-05-01T15:39:27.444Z,1.52
2023-05-01T15:42:19.744Z,1.51
2023-05-01T15:45:11.512Z,1.29
2023-05-01T15:48:03.397Z,1.08
2023-05-01T15:50:55.001Z,1.14
2023-05-01T15:53:46.552Z,1.32
2023-05-01T15:56:38.324Z,1.31
2023-05-01T15:59:30.245Z,1.33
2023-05-01T16:02:22.245Z,1.36
2023-05-01T16:05:18.526Z,1.30
2023-05-01T16:08:10.142Z,1.38
2023-05-01T16:11:03.717Z,1.40
2023-05-01T16:13:55.317Z,1.52
2023-05-01T16:16:46.992Z,1.21
2023-05-01T16:19:39.098Z,1.23
2023-05-01T16:22:32.749Z,1.04
2023-05-01T16:25:24.402Z,1.24
2023-05-01T16:28:17.538Z,1.31
2023-05-01T16:31:25.775Z,1.48
2023-05-01T16:34:26.111Z,1.52
2023-05-01T16:37:22.618Z,1.51
2023-05-01T16:40:21.508Z,1.49
2023-05-01T16:43:13.482Z,1.46
2023-05-01T16:46:05.145Z,1.42
2023-05-01T16:49:07.587Z,1.48
2023-05-01T16:52:02.540Z,1.48
2023-05-01T16:54:55.908Z,1.46
2023-05-01T16:57:47.777Z,1.43
2023-05-01T17:00:39.554Z,1.43
2023-05-01T17:03:31.270Z,1.80
2023-05-01T17:06:23.066Z,1.82
2023-05-01T17:09:14.737Z,1.71
2023-05-01T17:12:18.983Z,1.55
2023-05-01T17:15:11.102Z,1.75
2023-05-01T17:18:02.729Z,1.58
2023-05-01T17:20:54.405Z,1.59
2023-05-01T17:23:45.940Z,1.55
2023-05-01T17:26:37.504Z,1.40
2023-05-01T17:29:29.220Z,1.33
2023-05-01T17:32:33.598Z,1.34
2023-05-01T17:35:28.743Z,1.27
2023-05-01T17:38:20.337Z,1.28
2023-05-01T17:41:12.057Z,1.32
2023-05-01T17:44:03.725Z,1.45
2023-05-01T17:46:55.339Z,1.49
2023-05-01T17:49:46.974Z,1.57
2023-05-01T17:52:43.047Z,1.45
2023-05-01T17:55:34.578Z,1.35
2023-05-01T17:58:26.182Z,1.51
2023-05-01T18:01:17.729Z,1.41
2023-05-01T18:04:09.476Z,1.52
2023-05-01T18:07:01.454Z,1.91
2023-05-01T18:09:53.066Z,1.77
2023-05-01T18:12:44.617Z,1.83
2023-05-01T18:15:36.146Z,1.71
2023-05-01T18:18:27.635Z,1.59
2023-05-01T18:21:19.169Z,1.50
2023-05-01T18:24:10.724Z,1.61
2023-05-01T18:27:02.271Z,1.43
2023-05-01T18:29:53.800Z,1.67
2023-05-01T18:32:48.621Z,1.49
2023-05-01T18:35:42.210Z,1.68
2023-05-01T18:38:33.785Z,1.63
2023-05-01T18:41:25.452Z,2.01
2023-05-01T18:44:17.951Z,1.95
2023-05-01T18:47:09.750Z,1.94
2023-05-01T18:50:01.813Z,2.25
2023-05-01T18:52:53.549Z,1.91
2023-05-01T18:55:45.156Z,1.78
2023-05-01T18:58:36.811Z,1.80
2023-05-01T19:01:28.538Z,1.78
2023-05-01T19:04:20.321Z,1.87
2023-05-01T19:07:11.911Z,1.84
2023-05-01T19:10:03.654Z,2.07
2023-05-01T19:12:55.181Z,2.05
2023-05-01T19:15:46.737Z,2.11
2023-05-01T19:18:38.399Z,2.00
2023-05-01T19:21:29.904Z,2.24
2023-05-01T19:24:21.451Z,2.27
2023-05-01T19:27:13.034Z,2.71
2023-05-01T19:30:06.031Z,2.93
2023-05-01T19:32:57.698Z,2.54
2023-05-01T19:35:49.408Z,2.96
2023-05-01T19:38:40.943Z,3.09
2023-05-01T19:41:32.495Z,3.59
2023-05-01T19:44:24.168Z,3.66
2023-05-01T19:47:15.748Z,3.67
2023-05-01T19:50:08.036Z,3.57
2023-05-01T19:52:59.547Z,3.10
2023-05-01T19:55:51.056Z,3.26
2023-05-01T19:58:42.618Z,3.27
2023-05-01T20:01:34.155Z,3.20
2023-05-01T20:04:25.763Z,3.64
2023-05-01T20:07:18.517Z,4.10
2023-05-01T20:10:10.384Z,4.30
2023-05-01T20:13:01.862Z,3.92
2023-05-01T20:15:53.397Z,3.57
2023-05-01T20:18:44.938Z,3.66
2023-05-01T20:21:36.479Z,3.80
2023-05-01T20:24:29.389Z,3.38
2023-05-01T20:27:20.962Z,3.31
2023-05-01T20:30:12.647Z,3.20
2023-05-01T20:33:04.194Z,3.33
2023-05-01T20:35:55.895Z,3.47
2023-05-01T20:38:47.581Z,3.32
2023-05-01T20:41:39.166Z,3.19
2023-05-01T20:44:30.675Z,3.60
2023-05-01T20:47:22.259Z,3.52
2023-05-01T20:50:13.804Z,3.26
2023-05-01T20:53:05.358Z,3.35
2023-05-01T20:55:57.639Z,3.49
2023-05-01T20:58:49.280Z,3.60
2023-05-01T21:01:40.852Z,3.38
2023-05-01T21:04:32.439Z,3.33
2023-05-01T21:07:24.007Z,3.16
2023-05-01T21:10:15.607Z,3.10
2023-05-01T21:13:07.159Z,3.51
2023-05-01T21:15:59.162Z,2.95
2023-05-01T21:18:50.716Z,2.74
2023-05-01T21:21:42.328Z,2.28
2023-05-01T21:24:33.967Z,1.90
2023-05-01T21:27:26.942Z,1.91
2023-05-01T21:30:27.766Z,1.71
2023-05-01T21:33:19.415Z,1.78
2023-05-01T21:36:11.192Z,1.68
2023-05-01T21:39:02.749Z,2.02
2023-05-01T21:41:54.399Z,2.52
2023-05-01T21:44:46.092Z,3.23
2023-05-01T21:47:43.237Z,3.81
2023-05-01T21:50:37.130Z,3.88
2023-05-01T21:53:28.694Z,4.15
2023-05-01T21:56:23.244Z,4.22
2023-05-01T21:59:17.022Z,4.98
2023-05-01T22:02:11.030Z,4.75
2023-05-01T22:05:02.638Z,4.89
2023-05-01T22:07:54.320Z,4.81
2023-05-01T22:10:46.237Z,4.60
2023-05-01T22:13:37.825Z,4.82
2023-05-01T22:16:29.428Z,4.82
2023-05-01T22:19:21.025Z,4.47
2023-05-01T22:22:12.538Z,4.61
2023-05-01T22:25:05.086Z,4.74
2023-05-01T22:27:56.605Z,4.51
2023-05-01T22:30:48.131Z,4.37
2023-05-01T22:33:39.615Z,4.09
2023-05-01T22:36:31.163Z,3.90
2023-05-01T22:39:22.799Z,3.68
2023-05-01T22:42:14.348Z,3.49
2023-05-01T22:45:06.561Z,3.67
2023-05-01T22:47:58.133Z,3.45
2023-05-01T22:50:49.747Z,3.20
2023-05-01T22:53:41.270Z,3.23
2023-05-01T22:56:32.834Z,3.37
2023-05-01T22:59:24.358Z,3.51
2023-05-01T23:02:15.918Z,3.02
2023-05-01T23:05:07.972Z,3.35
2023-05-01T23:07:59.517Z,3.19
2023-05-01T23:10:51.071Z,3.17
2023-05-01T23:13:47.866Z,3.09
2023-05-01T23:16:42.543Z,3.07
2023-05-01T23:19:34.083Z,3.31
2023-05-01T23:22:25.605Z,3.20
2023-05-01T23:25:25.197Z,3.37
2023-05-01T23:28:24.601Z,3.07
2023-05-01T23:31:27.666Z,2.99
2023-05-01T23:34:19.414Z,3.28
2023-05-01T23:37:10.973Z,3.21
2023-05-01T23:40:02.840Z,3.20
2023-05-01T23:42:54.630Z,3.75
2023-05-01T23:45:46.507Z,3.27
2023-05-01T23:48:38.171Z,3.56
2023-05-01T23:51:30.527Z,3.46
2023-05-01T23:54:22.078Z,3.54
2023-05-01T23:57:13.620Z,3.43
